Data for 12/14/2010

Time Sea-Level Adjusted Pressure Absolute Pressure Temperature Relative Humidity Dew Point   
(mb) (inHg) (mb) (inHg) (C) (F) (%) (C) (F)
00:05 1012 29.88 841 24.83 4.7 40.4 60 -2.5 27.6
00:10 1012 29.88 841 24.83 4.6 40.2 60 -2.4 27.6
00:15 1012 29.88 841 24.83 4.3 39.8 62 -2.4 27.8
00:20 1011 29.85 841 24.83 4.4 39.9 61 -2.4 27.7
00:25 1011 29.85 840 24.81 4.5 40.1 61 -2.3 27.8
00:30 1011 29.85 840 24.81 4.5 40 62 -2.3 27.9
00:35 1011 29.85 840 24.81 4.4 39.9 62 -2.3 27.8
00:40 1011 29.85 840 24.81 4.4 39.9 62 -2.2 28
00:45 1011 29.85 840 24.81 3.9 39.1 64 -2.2 28
00:50 1011 29.85 840 24.81 3.8 38.9 64 -2.3 27.8
00:55 1011 29.85 840 24.81 3.8 38.9 64 -2.4 27.7
01:00 1011 29.85 840 24.81 4 39.2 63 -2.4 27.8
01:05 1011 29.85 840 24.81 4.2 39.5 62 -2.3 27.8
01:10 1011 29.85 840 24.81 4.2 39.6 62 -2.4 27.6
01:15 1011 29.85 840 24.81 4.3 39.8 61 -2.4 27.7
01:20 1011 29.85 840 24.81 4.4 39.8 61 -2.4 27.7
01:25 1011 29.85 840 24.81 4.2 39.5 63 -2.3 27.8
01:30 1011 29.85 840 24.81 4 39.2 63 -2.4 27.7
01:35 1011 29.85 840 24.81 4.1 39.4 62 -2.6 27.3
01:40 1011 29.85 840 24.81 4.1 39.4 63 -2.3 27.8
01:45 1010 29.83 840 24.81 4 39.1 63 -2.4 27.8
01:50 1010 29.83 840 24.81 4 39.2 63 -2.4 27.6
01:55 1010 29.83 840 24.81 4 39.2 63 -2.4 27.8
02:00 1010 29.83 839 24.78 4 39.1 63 -2.4 27.6
02:05 1010 29.83 839 24.78 4 39.3 63 -2.4 27.6
02:10 1010 29.83 839 24.78 4.1 39.4 62 -2.5 27.5
02:15 1010 29.83 840 24.81 4.2 39.6 62 -2.5 27.5
02:20 1010 29.83 840 24.81 4.4 39.9 60 -2.7 27.1
02:25 1010 29.83 840 24.81 4.7 40.5 58 -2.9 26.8
02:30 1010 29.83 840 24.81 5 41 57 -2.7 27.1
02:35 1010 29.83 839 24.78 5.4 41.6 54 -3.2 26.3
02:40 1010 29.83 839 24.78 5.9 42.6 54 -2.8 27
02:45 1010 29.83 839 24.78 5.6 42 56 -2.5 27.5
02:50 1010 29.83 839 24.78 5.8 42.5 53 -3.1 26.5
02:55 1010 29.83 839 24.78 5.9 42.5 55 -2.4 27.7
03:00 1010 29.83 839 24.78 5.4 41.7 56 -2.6 27.2
03:05 1010 29.83 839 24.78 5.6 42.1 53 -3.1 26.4
03:10 1010 29.83 839 24.78 6 42.8 53 -2.8 27
03:15 1010 29.83 839 24.78 5.8 42.4 54 -2.8 27
03:20 1009 29.8 839 24.78 5.7 42.3 54 -3 26.7
03:25 1009 29.8 839 24.78 5.9 42.6 54 -2.7 27.1
03:30 1009 29.8 838 24.75 5.5 41.8 59 -1.9 28.5
03:35 1009 29.8 838 24.75 5 41 61 -1.9 28.5
03:40 1009 29.8 838 24.75 4.8 40.7 62 -1.9 28.6
03:45 1009 29.8 838 24.75 4.6 40.2 63 -1.9 28.5
03:50 1009 29.8 838 24.75 4.4 39.9 63 -2 28.4
03:55 1009 29.8 838 24.75 4.5 40 62 -2.3 27.9
04:00 1009 29.8 838 24.75 4.7 40.5 62 -2 28.4
04:05 1009 29.8 838 24.75 4.2 39.6 64 -1.9 28.5
04:10 1009 29.8 838 24.75 4 39.3 64 -2.1 28.3
04:15 1009 29.8 838 24.75 4.1 39.3 63 -2.4 27.7
04:20 1008 29.77 838 24.75 4.8 40.6 60 -2.2 28
04:25 1008 29.77 838 24.75 4.8 40.7 62 -1.9 28.5
04:30 1008 29.77 837 24.72 4.9 40.8 60 -2.2 28
04:35 1008 29.77 837 24.72 5.5 41.9 58 -2.2 28
04:40 1008 29.77 838 24.75 5.4 41.6 61 -1.6 29.2
04:45 1008 29.77 838 24.75 5.3 41.6 58 -2.3 27.8
04:50 1008 29.77 837 24.72 5.8 42.4 60 -1.5 29.4
04:55 1008 29.77 837 24.72 5.1 41.2 61 -1.8 28.7
05:00 1008 29.77 837 24.72 5.1 41.2 60 -2.1 28.2
05:05 1008 29.77 837 24.72 5.6 42.1 58 -1.9 28.5
05:10 1008 29.77 837 24.72 5.4 41.7 59 -2 28.4
05:15 1008 29.77 837 24.72 4.9 40.9 62 -1.7 29
05:20 1008 29.77 837 24.72 4.3 39.7 65 -1.8 28.8
05:25 1007 29.74 837 24.72 4 39.3 65 -2 28.4
05:30 1007 29.74 836 24.69 4.1 39.4 65 -2 28.4
05:35 1007 29.74 836 24.69 4.4 39.9 60 -2.6 27.3
05:40 1007 29.74 836 24.69 5.3 41.6 57 -2.5 27.4
05:45 1007 29.74 836 24.69 5.9 42.5 54 -2.7 27.1
05:50 1007 29.74 836 24.69 6.2 43.2 53 -2.6 27.3
05:55 1007 29.74 836 24.69 6.3 43.3 54 -2.4 27.7
06:00 1007 29.74 836 24.69 6.1 42.9 55 -2.3 27.8
06:05 1007 29.74 836 24.69 6 42.7 54 -2.6 27.3
06:10 1007 29.74 836 24.69 5.7 42.2 58 -2 28.4
06:15 1007 29.74 836 24.69 5.6 42 54 -3 26.7
06:20 1007 29.74 836 24.69 6.2 43.2 52 -2.8 27
06:25 1006 29.71 836 24.69 6.2 43.2 55 -2.1 28.2
06:30 1006 29.71 835 24.66 5.9 42.6 54 -2.7 27.1
06:35 1006 29.71 835 24.66 5.9 42.6 55 -2.5 27.6
06:40 1006 29.71 835 24.66 5.7 42.3 51 -3.7 25.3
06:45 1006 29.71 835 24.66 6.2 43.2 50 -3.3 26
06:50 1006 29.71 835 24.66 6 42.8 54 -2.5 27.4
06:55 1006 29.71 835 24.66 5.6 42.1 55 -2.6 27.3
07:00 1006 29.71 835 24.66 5.4 41.7 55 -3 26.5
07:05 1006 29.71 835 24.66 5.5 41.9 54 -3.1 26.4
07:10 1006 29.71 835 24.66 5.6 42.2 54 -2.8 26.9
07:15 1005 29.68 835 24.66 5.2 41.4 57 -2.6 27.3
07:20 1005 29.68 835 24.66 4.8 40.6 59 -2.6 27.4
07:25 1005 29.68 835 24.66 4.7 40.5 59 -2.7 27.1
07:30 1005 29.68 834 24.63 4.7 40.5 59 -2.7 27.2
07:35 1005 29.68 834 24.63 4.8 40.6 58 -2.7 27.1
07:40 1005 29.68 834 24.63 4.8 40.6 59 -2.6 27.3
07:45 1005 29.68 834 24.63 4.6 40.3 58 -2.9 26.8
07:50 1005 29.68 834 24.63 4.9 40.8 57 -2.9 26.8
07:55 1005 29.68 834 24.63 5 40.9 56 -3 26.6
08:00 1005 29.68 834 24.63 5 41.1 56 -2.9 26.7
08:05 1005 29.68 834 24.63 5.1 41.2 54 -3.4 25.9
08:10 1005 29.68 834 24.63 5.2 41.4 55 -3 26.5
08:15 1005 29.68 834 24.63 5.4 41.6 53 -3.4 26
08:20 1005 29.68 834 24.63 5.6 42.1 52 -3.4 25.9
08:25 1005 29.68 834 24.63 6.1 42.9 49 -3.9 25
08:30 1005 29.68 834 24.63 6.4 43.5 49 -3.4 25.9
08:35 1004 29.65 834 24.63 6 42.8 52 -3.1 26.5
08:40 1004 29.65 833 24.6 5.5 41.8 54 -3 26.5
08:45 1004 29.65 833 24.6 5.3 41.5 55 -3.1 26.5
08:50 1004 29.65 833 24.6 5.5 41.8 53 -3.4 25.8
08:55 1004 29.65 833 24.6 5.5 41.8 55 -2.9 26.9
09:00 1004 29.65 833 24.6 5.4 41.8 53 -3.4 25.8
09:05 1004 29.65 833 24.6 5.9 42.6 51 -3.5 25.8
09:10 1004 29.65 833 24.6 5.9 42.6 52 -3.2 26.3
09:15 1004 29.65 833 24.6 5.8 42.4 52 -3.3 26.1
09:20 1004 29.65 833 24.6 5.9 42.6 50 -3.7 25.4
09:25 1004 29.65 833 24.6 6.2 43.2 48 -4 24.8
09:30 1004 29.65 833 24.6 7.5 45.6 42 -4.6 23.7
09:35 1004 29.65 833 24.6 9 48.1 40 -4 24.8
09:40 1004 29.65 833 24.6 9 48.2 40 -4 24.8
09:45 1004 29.65 833 24.6 9.1 48.3 39 -4 24.8
09:50 1004 29.65 833 24.6 9.1 48.4 39 -4 24.8
09:55 1003 29.62 833 24.6 9.1 48.3 40 -3.8 25.2
10:00 1003 29.62 833 24.6 9 48.1 40 -3.7 25.3
10:05 1003 29.62 833 24.6 8.9 48.1 42 -3.1 26.4
10:10 1003 29.62 833 24.6 8.3 46.9 45 -3 26.5
10:15 1003 29.62 832 24.57 8.5 47.2 40 -4.3 24.3
10:20 1003 29.62 832 24.57 8.7 47.6 41 -3.8 25.1
10:25 1003 29.62 832 24.57 8.7 47.7 43 -3.1 26.4
10:30 1003 29.62 832 24.57 8.4 47.1 45 -2.9 26.8
10:35 1003 29.62 832 24.57 8 46.3 46 -2.8 26.9
10:40 1003 29.62 832 24.57 7.8 46.1 46 -3 26.5
10:45 1003 29.62 832 24.57 8.1 46.6 45 -3.1 26.5
10:50 1003 29.62 832 24.57 8.5 47.3 43 -3.2 26.2
10:55 1003 29.62 832 24.57 8.5 47.3 45 -2.8 27
11:00 1002 29.59 832 24.57 8.3 47 45 -2.7 27.1
11:05 1002 29.59 832 24.57 8.4 47 47 -2.4 27.7
11:10 1002 29.59 832 24.57 8.1 46.6 48 -2.2 28
11:15 1002 29.59 832 24.57 8.1 46.5 49 -2 28.4
11:20 1002 29.59 831 24.54 7.8 46 51 -1.8 28.8
11:25 1002 29.59 832 24.57 7.7 45.8 52 -1.4 29.5
11:30 1002 29.59 832 24.57 7.4 45.2 55 -1.1 30
11:35 1002 29.59 832 24.57 7 44.5 57 -0.9 30.4
11:40 1002 29.59 832 24.57 6.8 44.3 58 -0.8 30.5
11:45 1002 29.59 831 24.54 6.7 44 60 -0.6 30.9
11:50 1002 29.59 831 24.54 6.5 43.6 61 -0.5 31.1
11:55 1002 29.59 831 24.54 6.1 43.1 62 -0.6 30.9
12:00 1002 29.59 831 24.54 6.2 43.2 62 -0.5 31.1
12:05 1002 29.59 831 24.54 6.3 43.4 62 -0.5 31.1
12:10 1002 29.59 831 24.54 6.2 43.1 63 -0.3 31.5
12:15 1002 29.59 831 24.54 6.2 43.1 62 -0.6 31
12:20 1002 29.59 831 24.54 6.4 43.6 62 -0.3 31.4
12:25 1002 29.59 831 24.54 6.5 43.7 61 -0.5 31.1
12:30 1002 29.59 831 24.54 6.7 44 61 -0.2 31.6
12:35 1002 29.59 831 24.54 6.5 43.8 63 -0 32
12:40 1002 29.59 831 24.54 6.4 43.4 63 -0.2 31.7
12:45 1002 29.59 831 24.54 6.3 43.3 63 -0.3 31.4
12:50 1002 29.59 831 24.54 6.3 43.3 63 -0.3 31.5
12:55 1002 29.59 831 24.54 6.3 43.4 62 -0.4 31.4
13:00 1002 29.59 831 24.54 6.3 43.3 62 -0.5 31.2
13:05 1002 29.59 831 24.54 5.9 42.6 62 -0.8 30.6
13:10 1002 29.59 831 24.54 5.8 42.5 63 -0.7 30.7
13:15 1002 29.59 831 24.54 5.8 42.4 65 -0.4 31.3
13:20 1002 29.59 831 24.54 5.4 41.8 65 -0.5 31
13:25 1002 29.59 831 24.54 5.1 41.1 67 -0.6 30.9
13:30 1001 29.56 831 24.54 4.9 40.8 68 -0.5 31.1
13:35 1001 29.56 831 24.54 4.7 40.5 69 -0.4 31.3
13:40 1001 29.56 830 24.51 4.6 40.3 70 -0.4 31.4
13:45 1001 29.56 830 24.51 4.5 40.1 71 -0.3 31.5
13:50 1001 29.56 830 24.51 4.4 39.8 73 -0.1 31.8
13:55 1001 29.56 830 24.51 4.1 39.4 73 -0.4 31.4
14:00 1000 29.53 830 24.51 4.1 39.3 74 -0.2 31.7
14:05 1000 29.53 829 24.48 4 39.2 74 -0.2 31.6
14:10 1000 29.53 829 24.48 4.1 39.3 73 -0.4 31.4
14:15 1000 29.53 829 24.48 4.2 39.6 72 -0.4 31.3
14:20 1000 29.53 829 24.48 4.7 40.4 71 -0.2 31.6
14:25 1000 29.53 829 24.48 4.5 40.1 72 -0.1 31.9
14:30 1000 29.53 829 24.48 4.2 39.6 72 -0.3 31.5
14:35 1000 29.53 829 24.48 4.3 39.7 72 -0.4 31.3
14:40 1000 29.53 829 24.48 4.4 39.9 71 -0.4 31.3
14:45 1000 29.53 829 24.48 4.4 40 71 -0.4 31.3
14:50 1000 29.53 829 24.48 4.5 40 70 -0.5 31.2
14:55 1000 29.53 829 24.48 4.5 40 70 -0.5 31.1
15:00 1000 29.53 829 24.48 4.5 40 71 -0.4 31.3
15:05 1000 29.53 829 24.48 4.2 39.6 71 -0.5 31.2
15:10 1000 29.53 829 24.48 4.3 39.7 71 -0.5 31.1
15:15 1000 29.53 829 24.48 4.3 39.8 71 -0.5 31.2
15:20 1000 29.53 829 24.48 4.4 39.9 71 -0.4 31.3
15:25 1000 29.53 829 24.48 4.7 40.5 69 -0.5 31.2
15:30 1000 29.53 829 24.48 5.2 41.4 67 -0.4 31.2
15:35 1001 29.56 830 24.51 5.1 41.2 67 -0.6 30.9
15:40 1002 29.59 831 24.54 3 37.5 86 0.9 33.6
15:45 1003 29.62 832 24.57 1 33.7 92 -0.2 31.6
15:50 1003 29.62 832 24.57 0.5 32.9 94 -0.3 31.4
15:55 1003 29.62 832 24.57 0.3 32.5 95 -0.4 31.3
16:00 1003 29.62 832 24.57 0.1 32.2 96 -0.5 31.2
16:05 1003 29.62 832 24.57 0 32.1 97 -0.4 31.2
16:10 1003 29.62 832 24.57 0 32 97 -0.4 31.2
16:15 1003 29.62 832 24.57 -0 31.9 97 -0.4 31.2
16:20 1003 29.62 833 24.6 -0.1 31.9 97 -0.4 31.2
16:25 1004 29.65 833 24.6 -0 31.9 98 -0.4 31.3
16:30 1004 29.65 833 24.6 -0 32 98 -0.4 31.4
16:35 1004 29.65 833 24.6 0 32 98 -0.3 31.4
16:40 1004 29.65 833 24.6 0.1 32.2 98 -0.2 31.6
16:45 1004 29.65 833 24.6 0.1 32.2 98 -0.2 31.6
16:50 1004 29.65 833 24.6 0.1 32.2 98 -0.2 31.6
16:55 1004 29.65 833 24.6 -0.2 31.7 98 -0.5 31.1
17:00 1004 29.65 834 24.63 -0 32 98 -0.3 31.4
17:05 1004 29.65 834 24.63 0.1 32.2 98 -0.2 31.6
17:10 1005 29.68 834 24.63 0.1 32.1 98 -0.2 31.6
17:15 1005 29.68 834 24.63 -0.1 31.8 98 -0.5 31.2
17:20 1004 29.65 834 24.63 -0.3 31.5 98 -0.6 30.9
17:25 1004 29.65 834 24.63 -0.3 31.5 98 -0.6 30.9
17:30 1004 29.65 834 24.63 -0.3 31.5 98 -0.6 30.9
17:35 1004 29.65 833 24.6 -0.2 31.6 97 -0.6 30.9
17:40 1004 29.65 833 24.6 -0.2 31.6 97 -0.6 30.9
17:45 1004 29.65 834 24.63 -0.2 31.7 97 -0.6 30.8
17:50 1004 29.65 834 24.63 -0.2 31.7 96 -0.8 30.6
17:55 1004 29.65 834 24.63 -0 31.9 94 -0.9 30.4
18:00 1004 29.65 834 24.63 0.1 32.2 92 -1 30.2
18:05 1004 29.65 834 24.63 0.3 32.5 91 -1.1 30.1
18:10 1004 29.65 834 24.63 0.5 32.9 88 -1.2 29.8
18:15 1004 29.65 834 24.63 0.7 33.2 89 -0.9 30.4
18:20 1005 29.68 834 24.63 0.7 33.3 91 -0.6 30.9
18:25 1005 29.68 834 24.63 0.7 33.3 91 -0.6 31
18:30 1005 29.68 834 24.63 0.7 33.2 91 -0.6 30.9
18:35 1005 29.68 834 24.63 0.9 33.6 89 -0.8 30.6
18:40 1005 29.68 834 24.63 1 33.9 89 -0.6 30.9
18:45 1005 29.68 834 24.63 1 33.9 88 -0.7 30.8
18:50 1005 29.68 834 24.63 1.1 33.9 84 -1.4 29.5
18:55 1005 29.68 834 24.63 1.1 34 82 -1.6 29.1
19:00 1005 29.68 834 24.63 0.9 33.6 85 -1.4 29.5
19:05 1005 29.68 834 24.63 0.8 33.4 86 -1.3 29.6
19:10 1005 29.68 834 24.63 0.7 33.2 86 -1.4 29.4
19:15 1005 29.68 834 24.63 0.5 32.9 86 -1.5 29.3
19:20 1005 29.68 834 24.63 0.4 32.7 87 -1.6 29.1
19:25 1005 29.68 834 24.63 0.1 32.2 88 -1.6 29.1
19:30 1005 29.68 834 24.63 -0.1 31.8 90 -1.5 29.3
19:35 1005 29.68 834 24.63 -0.3 31.4 92 -1.5 29.3
19:40 1005 29.68 834 24.63 -0.5 31 92 -1.7 28.9
19:45 1005 29.68 834 24.63 -0.6 31 92 -1.8 28.8
19:50 1005 29.68 834 24.63 -0.5 31.1 87 -2.4 27.6
19:55 1005 29.68 834 24.63 -0.4 31.2 82 -3.1 26.4
20:00 1005 29.68 834 24.63 -0.3 31.5 83 -2.9 26.8
20:05 1005 29.68 834 24.63 -0.3 31.5 83 -2.9 26.8
20:10 1005 29.68 834 24.63 -0.5 31.1 85 -2.7 27.1
20:15 1005 29.68 834 24.63 -0.7 30.8 86 -2.7 27.1
20:20 1005 29.68 834 24.63 -0.6 30.9 87 -2.5 27.5
20:25 1005 29.68 834 24.63 -0.7 30.8 87 -2.6 27.4
20:30 1005 29.68 834 24.63 -0.7 30.7 87 -2.5 27.4
20:35 1005 29.68 834 24.63 -0.6 30.8 87 -2.6 27.3
20:40 1005 29.68 834 24.63 -0.4 31.3 84 -2.7 27.1
20:45 1005 29.68 834 24.63 -0.2 31.7 82 -2.9 26.8
20:50 1005 29.68 834 24.63 0.1 32.2 79 -3.1 26.4
20:55 1005 29.68 834 24.63 0.3 32.6 78 -3 26.6
21:00 1005 29.68 834 24.63 0.3 32.6 78 -3.1 26.4
21:05 1005 29.68 834 24.63 0.4 32.7 75 -3.5 25.7
21:10 1005 29.68 834 24.63 0.6 33 75 -3.4 25.8
21:15 1005 29.68 834 24.63 0.6 33 75 -3.3 26.1
21:20 1005 29.68 834 24.63 0.5 32.9 73 -3.7 25.3
21:25 1005 29.68 835 24.66 0.6 33 70 -4.3 24.3
21:30 1006 29.71 835 24.66 0.7 33.2 68 -4.6 23.7
21:35 1006 29.71 835 24.66 0.8 33.4 66 -4.8 23.4
21:40 1005 29.68 835 24.66 0.9 33.6 67 -4.6 23.7
21:45 1006 29.71 835 24.66 0.7 33.3 67 -4.6 23.7
21:50 1006 29.71 835 24.66 0.6 33.1 64 -5.4 22.3
21:55 1006 29.71 835 24.66 0.5 33 67 -4.9 23.2
22:00 1006 29.71 835 24.66 0.4 32.7 63 -5.8 21.5
22:05 1006 29.71 835 24.66 0.2 32.4 64 -5.9 21.4
22:10 1006 29.71 835 24.66 0.1 32.1 62 -6.5 20.3
22:15 1006 29.71 835 24.66 -0 31.9 58 -7.4 18.7
22:20 1006 29.71 835 24.66 -0.1 31.8 60 -7 19.4
22:25 1006 29.71 835 24.66 -0.1 31.9 58 -7.3 18.9
22:30 1006 29.71 835 24.66 -0.2 31.7 58 -7.5 18.4
22:35 1006 29.71 835 24.66 -0.2 31.7 57 -7.7 18.2
22:40 1006 29.71 835 24.66 -0.3 31.5 59 -7.4 18.7
22:45 1006 29.71 836 24.69 -0.4 31.3 59 -7.4 18.7
22:50 1007 29.74 836 24.69 -0.4 31.2 61 -7 19.4
22:55 1007 29.74 836 24.69 -0.5 31.1 65 -6.3 20.7
23:00 1007 29.74 836 24.69 -0.7 30.8 62 -7.1 19.3
23:05 1007 29.74 836 24.69 -0.6 30.9 62 -7 19.4
23:10 1007 29.74 836 24.69 -0.6 30.8 63 -6.8 19.8
23:15 1007 29.74 836 24.69 -0.7 30.8 64 -6.7 20
23:20 1007 29.74 836 24.69 -0.7 30.7 64 -6.7 19.9
23:25 1007 29.74 836 24.69 -1 30.2 63 -7.1 19.2
23:30 1007 29.74 836 24.69 -1.1 29.9 66 -6.7 20
23:35 1007 29.74 836 24.69 -1.1 29.9 64 -7.2 19
23:40 1007 29.74 836 24.69 -1.1 30 64 -7 19.4
23:45 1007 29.74 836 24.69 -1.1 30 65 -6.9 19.5
23:50 1007 29.74 836 24.69 -0.9 30.3 66 -6.5 20.4
23:55 1007 29.74 836 24.69 -0.9 30.4 67 -6.2 20.8